Time;durP1;ratioP1;P1;durP2;ratioP2;P2;SDS_P1;SDS_P2;PMS_P1;PMS_P2;Temp;Humidity;BMP_temperature;BMP_pressure;BME280_temperature;BME280_humidity;BME280_pressure;Samples;Min_cycle;Max_cycle;Signal;HPM_P1;HPM_P2
2023/10/30 00:01:51;;;;;;;5.40;1.70;;;;;;;;;;5123315;28;20482;-86
2023/10/30 00:04:18;;;;;;;7.75;1.80;;;;;;;;;;5132413;28;20402;-87
2023/10/30 00:06:44;;;;;;;7.63;1.63;;;;;;;;;;5106939;28;20748;-87
2023/10/30 00:09:10;;;;;;;7.27;1.57;;;;;;;;;;5097752;28;20408;-86
2023/10/30 00:11:36;;;;;;;5.82;1.55;;;;;;;;;;5108510;28;20406;-87
2023/10/30 00:14:04;;;;;;;6.88;1.52;;;;;;;;;;5093956;28;20989;-87
2023/10/30 00:16:30;;;;;;;5.10;1.35;;;;;;;;;;5130388;27;20408;-87
2023/10/30 00:18:58;;;;;;;9.68;1.73;;;;;;;;;;5095314;28;20416;-88
2023/10/30 00:21:24;;;;;;;4.53;1.35;;;;;;;;;;5109381;28;20904;-87
2023/10/30 00:23:50;;;;;;;7.10;1.52;;;;;;;;;;5111618;28;20428;-87
2023/10/30 00:26:16;;;;;;;5.70;1.17;;;;;;;;;;5114696;28;20394;-87
2023/10/30 00:28:42;;;;;;;7.82;1.55;;;;;;;;;;5099362;28;20400;-87
2023/10/30 00:31:09;;;;;;;4.68;1.20;;;;;;;;;;5131202;27;20444;-89
2023/10/30 00:33:35;;;;;;;4.90;1.40;;;;;;;;;;5099898;28;20450;-88
2023/10/30 00:36:01;;;;;;;6.20;1.58;;;;;;;;;;5105940;27;20417;-87
2023/10/30 00:38:27;;;;;;;4.93;1.50;;;;;;;;;;5113942;28;20418;-86
2023/10/30 00:40:53;;;;;;;4.75;1.30;;;;;;;;;;5098526;28;20403;-88
2023/10/30 00:43:19;;;;;;;5.68;1.30;;;;;;;;;;5098828;28;20924;-87
2023/10/30 00:45:46;;;;;;;5.05;1.23;;;;;;;;;;5098023;28;20434;-88
2023/10/30 00:48:12;;;;;;;4.47;1.43;;;;;;;;;;5131479;27;20394;-89
2023/10/30 00:50:38;;;;;;;5.18;1.30;;;;;;;;;;5116241;27;21006;-88
2023/10/30 00:53:04;;;;;;;3.17;1.00;;;;;;;;;;5120207;27;20742;-88
2023/10/30 00:55:30;;;;;;;4.00;1.17;;;;;;;;;;5099337;28;20392;-87
2023/10/30 00:57:56;;;;;;;3.97;1.13;;;;;;;;;;5109973;28;20420;-86
2023/10/30 01:00:22;;;;;;;2.53;0.98;;;;;;;;;;5115835;28;20402;-88
2023/10/30 01:02:48;;;;;;;3.85;1.15;;;;;;;;;;5110604;27;20732;-88
2023/10/30 01:05:14;;;;;;;5.07;1.40;;;;;;;;;;5119166;27;20390;-87
2023/10/30 01:07:40;;;;;;;5.23;1.33;;;;;;;;;;5113776;27;20877;-88
2023/10/30 01:10:06;;;;;;;2.65;1.00;;;;;;;;;;5120505;27;20470;-88
2023/10/30 01:12:32;;;;;;;4.90;1.20;;;10.10;99.90;;;;;;5136661;27;20409;-87
2023/10/30 01:14:58;;;;;;;4.95;1.20;;;9.90;99.90;;;;;;5102314;27;20462;-88
2023/10/30 01:17:23;;;;;;;3.88;1.30;;;9.90;99.90;;;;;;5099343;28;20407;-87
2023/10/30 01:19:49;;;;;;;5.25;1.38;;;;;;;;;;5117360;27;20816;-88
2023/10/30 01:22:16;;;;;;;4.70;1.33;;;;;;;;;;5117763;27;20386;-88
2023/10/30 01:24:42;;;;;;;5.65;1.70;;;;;;;;;;5081514;28;20743;-88
2023/10/30 01:27:08;;;;;;;6.22;1.52;;;;;;;;;;5115649;27;20433;-89
2023/10/30 01:29:34;;;;;;;4.70;1.60;;;;;;;;;;5082413;27;20971;-88
2023/10/30 01:32:00;;;;;;;7.13;1.77;;;9.90;99.90;;;;;;5102389;27;20398;-89
2023/10/30 01:34:26;;;;;;;3.60;1.50;;;;;;;;;;5101065;27;20489;-89
2023/10/30 01:36:52;;;;;;;6.75;1.70;;;;;;;;;;5117325;27;20432;-88
2023/10/30 01:39:18;;;;;;;7.47;1.80;;;;;;;;;;5113944;27;20420;-90
2023/10/30 01:41:45;;;;;;;7.07;2.03;;;;;;;;;;5092654;27;20422;-89
2023/10/30 01:44:11;;;;;;;5.65;1.77;;;;;;;;;;5097538;28;20410;-88
2023/10/30 01:46:37;;;;;;;4.32;1.75;;;;;;;;;;5106462;27;20398;-90
2023/10/30 01:49:03;;;;;;;7.13;2.00;;;;;;;;;;5117927;27;20410;-89
2023/10/30 01:51:30;;;;;;;6.97;2.07;;;;;;;;;;5121571;27;20524;-87
2023/10/30 01:53:56;;;;;;;5.70;2.05;;;;;;;;;;5118173;27;20434;-89
2023/10/30 01:56:24;;;;;;;6.53;1.90;;;;;;;;;;5113321;27;20460;-88
2023/10/30 01:58:50;;;;;;;8.25;2.15;;;;;;;;;;5107186;27;20417;-88
2023/10/30 02:01:16;;;;;;;6.88;2.10;;;;;;;;;;5137585;27;20397;-89
2023/10/30 02:03:43;;;;;;;7.85;2.25;;;;;;;;;;5120783;27;20397;-89
2023/10/30 02:06:09;;;;;;;6.95;2.08;;;;;;;;;;5121129;27;20391;-89
2023/10/30 02:08:35;;;;;;;5.82;1.95;;;;;;;;;;5133872;27;20864;-89
2023/10/30 02:11:01;;;;;;;7.03;2.40;;;;;;;;;;5120192;27;20902;-90
2023/10/30 02:13:27;;;;;;;5.85;2.08;;;;;;;;;;5115943;28;20875;-90
2023/10/30 02:15:53;;;;;;;6.60;2.00;;;;;;;;;;5123937;27;20847;-89
2023/10/30 02:18:19;;;;;;;10.00;2.50;;;;;;;;;;5135789;27;20419;-89
2023/10/30 02:20:47;;;;;;;7.25;2.33;;;;;;;;;;5092728;28;20430;-87
2023/10/30 02:23:13;;;;;;;8.82;2.67;;;;;;;;;;5115443;27;20394;-88
2023/10/30 02:25:39;;;;;;;7.05;2.28;;;;;;;;;;5121548;27;20402;-90
2023/10/30 02:28:07;;;;;;;7.10;2.20;;;;;;;;;;5100153;27;20932;-89
2023/10/30 02:30:33;;;;;;;7.80;2.67;;;;;;;;;;5104464;27;20809;-89
2023/10/30 02:32:59;;;;;;;8.23;2.43;;;;;;;;;;5127697;27;20424;-89
2023/10/30 02:35:25;;;;;;;7.78;2.45;;;;;;;;;;5083702;28;20404;-89
2023/10/30 02:37:51;;;;;;;8.02;2.22;;;;;;;;;;5113839;28;20408;-90
2023/10/30 02:40:17;;;;;;;8.43;2.40;;;;;;;;;;5109628;27;20927;-89
2023/10/30 02:42:43;;;;;;;7.93;2.50;;;;;;;;;;5105682;27;20393;-89
2023/10/30 02:45:10;;;;;;;9.60;2.30;;;;;;;;;;5113683;27;20390;-88
2023/10/30 02:47:36;;;;;;;10.07;2.50;;;;;;;;;;5118100;27;20862;-89
2023/10/30 02:50:03;;;;;;;10.27;2.55;;;;;;;;;;5100063;27;20411;-88
2023/10/30 02:52:30;;;;;;;8.77;2.25;;;;;;;;;;5084760;27;20407;-89
2023/10/30 02:54:56;;;;;;;8.48;2.35;;;;;;;;;;5117005;27;20387;-90
2023/10/30 02:57:22;;;;;;;11.07;2.22;;;;;;;;;;5115963;27;20402;-88
2023/10/30 02:59:48;;;;;;;8.48;2.17;;;;;;;;;;5099665;27;20427;-88
2023/10/30 03:02:14;;;;;;;7.20;2.22;;;;;;;;;;5117347;27;20405;-89
2023/10/30 03:04:40;;;;;;;8.80;2.22;;;;;;;;;;5103691;27;20398;-88
2023/10/30 03:07:06;;;;;;;8.20;2.58;;;;;;;;;;5109410;27;20408;-89
2023/10/30 03:09:33;;;;;;;13.35;2.50;;;;;;;;;;5102536;27;20430;-89
2023/10/30 03:11:59;;;;;;;13.60;2.40;;;;;;;;;;5110363;27;20481;-89
2023/10/30 03:14:25;;;;;;;10.82;2.85;;;;;;;;;;5135998;27;20402;-88
2023/10/30 03:16:51;;;;;;;8.75;2.25;;;;;;;;;;5091615;28;20404;-89
2023/10/30 03:19:18;;;;;;;7.65;2.00;;;9.70;99.90;;;;;;5125024;27;20471;-89
2023/10/30 03:21:44;;;;;;;5.95;2.15;;;;;;;;;;5100188;27;20756;-89
2023/10/30 03:24:10;;;;;;;8.32;2.22;;;;;;;;;;5125732;27;20394;-88
2023/10/30 03:26:36;;;;;;;10.33;2.67;;;;;;;;;;5121849;27;20478;-88
2023/10/30 03:29:02;;;;;;;8.15;2.45;;;;;;;;;;5100765;27;20438;-88
2023/10/30 03:31:28;;;;;;;8.00;2.33;;;;;;;;;;5134234;27;21041;-90
2023/10/30 03:33:55;;;;;;;7.72;2.47;;;;;;;;;;5116484;27;20398;-89
2023/10/30 03:36:22;;;;;;;9.70;2.20;;;;;;;;;;5110238;28;20473;-89
2023/10/30 03:38:48;;;;;;;10.98;2.42;;;;;;;;;;5108337;28;20421;-88
2023/10/30 03:41:14;;;;;;;9.82;3.05;;;;;;;;;;5115376;27;20387;-87
2023/10/30 03:43:41;;;;;;;14.77;2.95;;;;;;;;;;5111562;27;20406;-88
2023/10/30 03:46:07;;;;;;;10.93;2.38;;;;;;;;;;5097573;28;20406;-88
2023/10/30 03:48:33;;;;;;;11.30;2.92;;;;;;;;;;5098791;27;20767;-89
2023/10/30 03:50:59;;;;;;;9.43;2.10;;;;;;;;;;5111886;28;20404;-87
2023/10/30 03:53:25;;;;;;;10.65;2.50;;;;;;;;;;5109578;28;20401;-88
2023/10/30 03:55:51;;;;;;;11.10;2.53;;;;;;;;;;5093666;28;20407;-86
2023/10/30 03:58:17;;;;;;;12.95;2.58;;;;;;;;;;5090570;28;20969;-87
2023/10/30 04:00:43;;;;;;;14.25;3.28;;;;;;;;;;5116541;28;20400;-87
2023/10/30 04:03:10;;;;;;;9.60;2.33;;;;;;;;;;5114646;28;20421;-87
2023/10/30 04:05:38;;;;;;;8.98;2.60;;;;;;;;;;5098423;28;20398;-87
2023/10/30 04:08:04;;;;;;;9.25;2.67;;;;;;;;;;5114722;28;20881;-87
2023/10/30 04:10:31;;;;;;;12.18;2.45;;;;;;;;;;5117690;28;20894;-87
2023/10/30 04:12:57;;;;;;;13.93;2.30;;;;;;;;;;5113351;28;20805;-88
2023/10/30 04:15:23;;;;;;;9.83;2.67;;;;;;;;;;5104822;28;20403;-89
2023/10/30 04:17:50;;;;;;;9.05;2.53;;;;;;;;;;5113874;27;20419;-87
2023/10/30 04:20:16;;;;;;;10.20;2.20;;;;;;;;;;5093256;28;20400;-87
2023/10/30 04:22:42;;;;;;;11.68;2.50;;;;;;;;;;5120910;28;20387;-87
2023/10/30 04:25:09;;;;;;;8.43;2.42;;;;;;;;;;5100541;27;20746;-88
2023/10/30 04:27:35;;;;;;;8.30;2.30;;;;;;;;;;5102964;27;20547;-88
2023/10/30 04:30:02;;;;;;;13.57;2.60;;;;;;;;;;5104126;27;20390;-87
2023/10/30 04:32:28;;;;;;;11.02;2.63;;;;;;;;;;5102342;27;20395;-87
2023/10/30 04:34:54;;;;;;;11.13;2.30;;;;;;;;;;5094585;28;20484;-87
2023/10/30 04:37:21;;;;;;;9.77;2.50;;;;;;;;;;5115798;27;20498;-88
2023/10/30 04:39:47;;;;;;;8.35;2.05;;;;;;;;;;5120520;27;20461;-89
2023/10/30 04:42:14;;;;;;;13.00;2.65;;;;;;;;;;5119220;27;20399;-89
2023/10/30 04:44:40;;;;;;;9.77;2.72;;;;;;;;;;5120574;27;20434;-89
2023/10/30 04:47:07;;;;;;;9.93;2.50;;;;;;;;;;5127077;27;20402;-88
2023/10/30 04:49:35;;;;;;;12.23;2.75;;;;;;;;;;5101718;27;20424;-87
2023/10/30 04:52:02;;;;;;;9.07;2.60;;;;;;;;;;5128589;27;20914;-88
2023/10/30 04:54:28;;;;;;;10.88;2.40;;;;;;;;;;5094498;27;20595;-86
2023/10/30 04:56:54;;;;;;;10.88;2.40;;;;;;;;;;5102018;27;20902;-86
2023/10/30 04:59:20;;;;;;;10.70;2.30;;;;;;;;;;5121378;27;20415;-82
2023/10/30 05:01:46;;;;;;;11.65;2.50;;;;;;;;;;5128080;27;20909;-82
2023/10/30 05:04:15;;;;;;;12.10;2.33;;;;;;;;;;5114194;27;20931;-82
2023/10/30 05:06:41;;;;;;;10.68;2.28;;;;;;;;;;5116498;27;20398;-82
2023/10/30 05:09:07;;;;;;;13.07;2.58;;;;;;;;;;5109669;27;20418;-81
2023/10/30 05:11:38;;;;;;;10.65;2.40;;;9.70;99.90;;;;;;5096829;28;20434;-80
2023/10/30 05:14:04;;;;;;;11.55;2.58;;;;;;;;;;5114733;27;20406;-82
2023/10/30 05:16:30;;;;;;;11.27;2.92;;;;;;;;;;5102430;27;20406;-81
2023/10/30 05:18:57;;;;;;;10.80;2.13;;;;;;;;;;5118527;27;20770;-80
2023/10/30 05:21:24;;;;;;;10.77;2.55;;;;;;;;;;5117850;27;20437;-81
2023/10/30 05:23:50;;;;;;;10.00;2.72;;;;;;;;;;5113051;27;20395;-82
2023/10/30 05:26:16;;;;;;;11.65;2.72;;;;;;;;;;5090645;27;20470;-81
2023/10/30 05:28:42;;;;;;;10.60;2.50;;;;;;;;;;5106615;27;20427;-82
2023/10/30 05:31:08;;;;;;;10.77;2.57;;;;;;;;;;5117602;27;20399;-82
2023/10/30 05:33:35;;;;;;;10.48;2.20;;;;;;;;;;5087455;28;20425;-79
2023/10/30 05:36:02;;;;;;;9.13;2.13;;;;;;;;;;5118696;27;20579;-79
2023/10/30 05:38:28;;;;;;;13.10;2.45;;;;;;;;;;5122402;27;20429;-79
2023/10/30 05:40:54;;;;;;;11.10;2.42;;;;;;;;;;5118359;27;20402;-78
2023/10/30 05:43:20;;;;;;;8.70;2.22;;;;;;;;;;5095797;27;20860;-78
2023/10/30 05:45:50;;;;;;;10.32;1.98;;;;;;;;;;5106677;28;20790;-78
2023/10/30 05:48:16;;;;;;;10.75;2.42;;;;;;;;;;5111041;27;20395;-77
2023/10/30 05:50:42;;;;;;;10.88;2.30;;;;;;;;;;5116063;27;20519;-78
2023/10/30 05:53:08;;;;;;;10.00;2.28;;;;;;;;;;5103265;27;20961;-78
2023/10/30 05:55:34;;;;;;;14.82;2.92;;;;;;;;;;5117737;27;20399;-77
2023/10/30 05:58:00;;;;;;;10.63;2.47;;;;;;;;;;5090264;27;20450;-78
2023/10/30 06:00:26;;;;;;;9.52;2.45;;;;;;;;;;5122981;27;20395;-78
2023/10/30 06:02:53;;;;;;;8.97;2.30;;;;;;;;;;5100294;27;20392;-79
2023/10/30 06:05:20;;;;;;;10.93;2.50;;;;;;;;;;5117499;27;20398;-79
2023/10/30 06:07:46;;;;;;;12.30;3.08;;;;;;;;;;5099945;27;20403;-78
2023/10/30 06:10:13;;;;;;;12.55;3.25;;;8.90;99.90;;;;;;5118054;27;20413;-78
2023/10/30 06:12:39;;;;;;;12.65;3.20;;;;;;;;;;5113726;27;20395;-78
2023/10/30 06:15:06;;;;;;;10.05;2.70;;;;;;;;;;5134190;27;21042;-78
2023/10/30 06:17:32;;;;;;;10.27;2.63;;;;;;;;;;5114629;27;20398;-78
2023/10/30 06:19:58;;;;;;;18.52;3.13;;;;;;;;;;5096347;27;20461;-78
2023/10/30 06:22:24;;;;;;;10.50;2.28;;;;;;;;;;5113015;27;20399;-76
2023/10/30 06:24:51;;;;;;;10.60;2.50;;;;;;;;;;5137201;27;20416;-76
2023/10/30 06:27:17;;;;;;;10.90;2.80;;;;;;;;;;5117729;27;20398;-77
2023/10/30 06:29:43;;;;;;;10.55;2.75;;;;;;;;;;5124421;27;20731;-77
2023/10/30 06:32:09;;;;;;;10.93;2.83;;;;;;;;;;5108039;27;21079;-76
2023/10/30 06:34:38;;;;;;;13.05;3.20;;;;;;;;;;5113375;27;20431;-77
2023/10/30 06:37:04;;;;;;;14.57;2.80;;;;;;;;;;5098083;27;20784;-77
2023/10/30 06:39:30;;;;;;;12.25;2.83;;;;;;;;;;5099026;27;20513;-76
2023/10/30 06:41:56;;;;;;;12.23;3.00;;;;;;;;;;5106809;27;20424;-77
2023/10/30 06:44:26;;;;;;;11.57;2.90;;;;;;;;;;5111950;27;20898;-76
2023/10/30 06:46:52;;;;;;;11.75;2.47;;;;;;;;;;5115132;27;20406;-76
2023/10/30 06:49:19;;;;;;;15.15;3.78;;;;;;;;;;5089889;27;20403;-74
2023/10/30 06:51:45;;;;;;;11.15;3.17;;;;;;;;;;5084493;28;20412;-75
2023/10/30 06:54:11;;;;;;;11.73;2.47;;;;;;;;;;5105526;27;20403;-76
2023/10/30 06:56:38;;;;;;;10.77;2.50;;;;;;;;;;5121935;27;20812;-76
2023/10/30 06:59:04;;;;;;;13.95;2.70;;;;;;;;;;5107501;27;20410;-76
2023/10/30 07:01:42;;;;;;;15.82;3.35;;;9.80;99.90;;;;;;5102504;27;20406;-76
2023/10/30 07:04:09;;;;;;;11.15;2.83;;;;;;;;;;5103386;27;20482;-76
2023/10/30 07:06:35;;;;;;;8.88;2.50;;;;;;;;;;5114529;27;20441;-77
2023/10/30 07:09:01;;;;;;;10.75;2.45;;;;;;;;;;5114667;27;20760;-78
2023/10/30 07:11:27;;;;;;;10.23;2.60;;;;;;;;;;5096399;27;20458;-77
2023/10/30 07:13:53;;;;;;;13.00;2.50;;;10.10;99.90;;;;;;5115501;27;20425;-77
2023/10/30 07:16:19;;;;;;;13.17;2.70;;;;;;;;;;5081800;28;20764;-77
2023/10/30 07:18:45;;;;;;;12.57;3.15;;;;;;;;;;5079998;27;20419;-77
2023/10/30 07:21:11;;;;;;;11.50;2.95;;;;;;;;;;5110701;27;20413;-77
2023/10/30 07:23:37;;;;;;;10.75;2.25;;;;;;;;;;5105698;27;20956;-77
2023/10/30 07:26:05;;;;;;;11.63;2.78;;;;;;;;;;5097333;27;20735;-77
2023/10/30 07:28:31;;;;;;;9.93;3.13;;;;;;;;;;5088774;28;20976;-77
2023/10/30 07:30:57;;;;;;;11.65;2.20;;;;;;;;;;5120419;27;20999;-78
2023/10/30 07:33:23;;;;;;;13.60;2.43;;;;;;;;;;5086975;27;20410;-78
2023/10/30 07:35:55;;;;;;;11.70;2.72;;;;;;;;;;5088086;28;20481;-78
2023/10/30 07:38:22;;;;;;;9.52;2.80;;;;;;;;;;5106152;28;20422;-76
2023/10/30 07:40:48;;;;;;;12.20;2.88;;;;;;;;;;5114679;27;20405;-77
2023/10/30 07:43:14;;;;;;;10.75;3.00;;;;;;;;;;5117055;27;20462;-78
2023/10/30 07:45:41;;;;;;;10.43;2.73;;;;;;;;;;5081470;28;20396;-77
2023/10/30 07:48:07;;;;;;;12.32;2.53;;;;;;;;;;5075356;27;20433;-78
2023/10/30 07:50:35;;;;;;;12.52;2.55;;;;;;;;;;5094148;27;20418;-84
2023/10/30 07:53:01;;;;;;;14.25;3.08;;;;;;;;;;5105075;28;20426;-86
2023/10/30 07:55:27;;;;;;;10.25;3.10;;;11.50;99.90;;;;;;5104103;28;20421;-85
2023/10/30 07:57:53;;;;;;;11.43;2.60;;;;;;;;;;5121608;28;20407;-84
2023/10/30 08:00:19;;;;;;;11.93;3.03;;;11.30;99.90;;;;;;5109448;27;20734;-86
2023/10/30 08:02:46;;;;;;;10.37;2.70;;;;;;;;;;5104697;27;20414;-84
2023/10/30 08:05:15;;;;;;;13.48;2.95;;;11.70;99.90;;;;;;5117133;27;20453;-84
2023/10/30 08:07:41;;;;;;;12.80;2.53;;;11.50;99.90;;;;;;5120259;27;20451;-85
2023/10/30 08:10:08;;;;;;;9.93;2.55;;;;;;;;;;5085276;27;20430;-86
2023/10/30 08:12:33;;;;;;;11.73;2.63;;;11.60;99.90;;;;;;5103085;27;20394;-84
2023/10/30 08:15:00;;;;;;;11.97;2.47;;;;;;;;;;5101827;27;20802;-86
2023/10/30 08:17:26;;;;;;;10.07;2.60;;;;;;;;;;5122834;27;20406;-85
2023/10/30 08:19:52;;;;;;;10.77;2.90;;;;;;;;;;5125268;27;20437;-78
2023/10/30 08:22:19;;;;;;;14.57;3.30;;;;;;;;;;5118169;27;20394;-85
2023/10/30 08:24:45;;;;;;;11.82;2.40;;;;;;;;;;5136039;27;20478;-84
2023/10/30 08:27:11;;;;;;;11.00;2.55;;;11.80;99.90;;;;;;5121821;27;20903;-85
2023/10/30 08:29:37;;;;;;;12.43;2.70;;;12.00;99.90;;;;;;5121140;27;20422;-84
2023/10/30 08:32:03;;;;;;;12.52;2.45;;;;;;;;;;5105142;27;20417;-83
2023/10/30 08:34:29;;;;;;;10.07;2.47;;;;;;;;;;5114059;27;21351;-84
2023/10/30 08:36:55;;;;;;;12.30;2.60;;;;;;;;;;5079603;28;20432;-84
2023/10/30 08:39:21;;;;;;;14.17;2.80;;;;;;;;;;5109512;27;20420;-84
2023/10/30 08:41:47;;;;;;;12.90;3.20;;;12.10;99.90;;;;;;5110593;27;20411;-85
2023/10/30 08:44:13;;;;;;;13.65;2.78;;;;;;;;;;5112605;27;20515;-85
2023/10/30 08:46:40;;;;;;;12.18;3.00;;;;;;;;;;5086605;28;20469;-84
2023/10/30 08:49:06;;;;;;;9.27;2.53;;;;;;;;;;5073783;27;20870;-84
2023/10/30 08:51:32;;;;;;;10.70;3.00;;;;;;;;;;5118690;27;20417;-84
2023/10/30 08:53:58;;;;;;;11.48;2.72;;;12.00;99.90;;;;;;5111966;27;20453;-83
2023/10/30 08:56:24;;;;;;;14.43;2.75;;;;;;;;;;5118370;27;20418;-84
2023/10/30 08:58:50;;;;;;;12.20;3.25;;;12.50;99.90;;;;;;5115127;27;20923;-84
2023/10/30 09:01:16;;;;;;;12.63;3.03;;;;;;;;;;5113251;27;20420;-83
2023/10/30 09:03:41;;;;;;;9.25;2.22;;;12.80;99.90;;;;;;5093971;27;20463;-84
2023/10/30 09:06:08;;;;;;;8.80;2.13;;;;;;;;;;5090803;27;20399;-83
2023/10/30 09:08:33;;;;;;;9.50;2.53;;;12.80;99.90;;;;;;5107463;27;20427;-85
2023/10/30 09:10:59;;;;;;;10.70;2.42;;;12.80;99.90;;;;;;5078856;27;20423;-84
2023/10/30 09:13:25;;;;;;;9.67;2.40;;;;;;;;;;5082694;27;20497;-84
2023/10/30 09:15:51;;;;;;;11.13;2.42;;;12.80;99.90;;;;;;5112279;27;20498;-84
2023/10/30 09:18:17;;;;;;;9.30;2.37;;;;;;;;;;5089699;27;20513;-85
2023/10/30 09:20:43;;;;;;;10.18;2.63;;;12.90;99.90;;;;;;5092740;27;20418;-85
2023/10/30 09:23:09;;;;;;;10.37;2.73;;;;;;;;;;5110197;27;20410;-85
2023/10/30 09:25:35;;;;;;;11.70;3.00;;;;;;;;;;5097732;27;20439;-78
2023/10/30 09:28:02;;;;;;;10.20;2.80;;;;;;;;;;5077935;27;20425;-78
2023/10/30 09:30:30;;;;;;;11.48;2.67;;;;;;;;;;5111052;27;20426;-79
2023/10/30 09:32:59;;;;;;;12.95;3.00;;;13.20;99.90;;;;;;5114696;27;20411;-79
2023/10/30 09:35:31;;;;;;;11.73;2.78;;;13.10;99.90;;;;;;5122058;27;20470;-80
2023/10/30 09:37:58;;;;;;;9.35;2.53;;;;;;;;;;5096071;27;20523;-79
2023/10/30 09:40:27;;;;;;;9.43;2.33;;;13.10;99.90;;;;;;5097430;27;20418;-79
2023/10/30 09:42:54;;;;;;;11.95;2.92;;;;;;;;;;5118706;27;20429;-79
2023/10/30 09:45:25;;;;;;;10.75;2.58;;;13.50;99.90;;;;;;5096903;27;20411;-78
2023/10/30 09:47:52;;;;;;;14.43;2.90;;;13.60;99.90;;;;;;5126730;27;20458;-78
2023/10/30 09:50:19;;;;;;;12.82;2.88;;;13.60;99.90;;;;;;5102203;27;20428;-78
2023/10/30 09:52:51;;;;;;;11.32;2.58;;;13.80;99.90;;;;;;5097678;27;20409;-82
2023/10/30 09:55:22;;;;;;;10.27;2.30;;;13.80;99.90;;;;;;5116640;27;20410;-86
2023/10/30 09:57:51;;;;;;;11.73;2.70;;;13.90;99.90;;;;;;5101879;27;20530;-78
2023/10/30 10:00:17;;;;;;;8.77;2.30;;;14.00;99.90;;;;;;5106760;27;20398;-83
2023/10/30 10:02:44;;;;;;;14.43;3.03;;;;;;;;;;5114157;27;20406;-77
2023/10/30 10:05:13;;;;;;;10.13;2.60;;;14.10;99.90;;;;;;5101552;27;20394;-78
2023/10/30 10:07:40;;;;;;;8.82;2.15;;;14.30;99.90;;;;;;5130801;27;20440;-79
2023/10/30 10:10:08;;;;;;;11.27;2.55;;;14.50;99.90;;;;;;5115440;27;20421;-77
2023/10/30 10:12:34;;;;;;;8.68;2.58;;;;;;;;;;5114324;27;20909;-77
2023/10/30 10:15:06;;;;;;;13.13;2.95;;;;;;;;;;5090438;27;20422;-77
2023/10/30 10:17:31;;;;;;;13.45;2.40;;;14.40;99.90;;;;;;5110368;27;20810;-78
2023/10/30 10:20:03;;;;;;;10.70;2.50;;;14.40;99.90;;;;;;5100044;27;20435;-86
2023/10/30 10:22:30;;;;;;;10.00;2.38;;;14.10;99.90;;;;;;5103781;28;20490;-86
2023/10/30 10:24:57;;;;;;;12.02;2.45;;;;;;;;;;5109169;27;20904;-86
2023/10/30 10:27:23;;;;;;;10.93;2.60;;;13.70;99.90;;;;;;5117399;27;20405;-83
2023/10/30 10:29:54;;;;;;;11.23;2.80;;;13.90;99.90;;;;;;5111952;27;20437;-78
2023/10/30 10:32:28;;;;;;;11.60;3.13;;;13.60;99.90;;;;;;5073803;27;20445;-79
2023/10/30 10:34:54;;;;;;;12.93;2.87;;;;;;;;;;5076422;27;20402;-78
2023/10/30 10:37:20;;;;;;;13.93;2.80;;;14.00;99.90;;;;;;5127079;27;20461;-77
2023/10/30 10:39:51;;;;;;;11.73;2.70;;;13.80;99.90;;;;;;5090461;27;20906;-79
2023/10/30 10:42:22;;;;;;;10.75;2.50;;;13.70;99.90;;;;;;5099118;27;20396;-79
2023/10/30 10:44:49;;;;;;;19.73;2.90;;;;;;;;;;5080613;27;20403;-79
2023/10/30 10:47:19;;;;;;;13.10;3.10;;;14.10;99.90;;;;;;5078490;27;20445;-79
2023/10/30 10:49:45;;;;;;;17.98;6.65;;;;;;;;;;5111594;27;20893;-78
2023/10/30 10:52:14;;;;;;;10.93;2.53;;;13.90;99.90;;;;;;5103825;28;20900;-79
2023/10/30 10:54:59;;;;;;;11.93;2.70;;;13.90;99.90;;;;;;5113592;27;20550;-78
2023/10/30 10:57:27;;;;;;;10.95;2.40;;;14.10;99.90;;;;;;5114697;27;20895;-87
2023/10/30 11:00:00;;;;;;;9.77;2.40;;;14.20;99.90;;;;;;5115131;27;20422;-84
2023/10/30 11:02:30;;;;;;;11.73;2.70;;;14.00;99.90;;;;;;5102699;28;20400;-85
2023/10/30 11:04:58;;;;;;;11.95;2.55;;;14.20;99.90;;;;;;5099313;27;20395;-86
2023/10/30 11:07:49;;;;;;;10.07;2.25;;;14.20;99.90;;;;;;5101701;27;20391;-87
2023/10/30 11:10:40;;;;;;;12.68;3.22;;;14.40;99.90;;;;;;5077216;27;20862;-85
2023/10/30 11:13:39;;;;;;;10.07;2.60;;;14.60;99.90;;;;;;5130776;27;20391;-86
2023/10/30 11:16:13;;;;;;;11.40;2.78;;;;;;;;;;5090736;27;20424;-85
2023/10/30 11:18:39;;;;;;;10.95;2.53;;;;;;;;;;5095190;28;20521;-86
2023/10/30 11:21:15;;;;;;;12.68;2.50;;;14.90;99.90;;;;;;5105757;27;20396;-86
2023/10/30 11:23:44;;;;;;;14.20;2.95;;;14.50;99.90;;;;;;5096998;28;20431;-85
2023/10/30 11:26:29;;;;;;;11.95;2.50;;;14.80;99.90;;;;;;5110873;28;20403;-86
2023/10/30 11:28:55;;;;;;;11.73;2.45;;;14.80;99.90;;;;;;5099984;28;20424;-85
2023/10/30 11:31:21;;;;;;;14.45;2.78;;;;;;;;;;5095747;28;20440;-85
2023/10/30 11:33:48;;;;;;;11.05;2.47;;;14.70;99.90;;;;;;5105564;27;20524;-85
2023/10/30 11:36:18;;;;;;;6.90;2.20;;;14.50;99.90;;;;;;5100831;27;20761;-75
2023/10/30 11:39:10;;;;;;;13.77;2.72;;;14.60;99.90;;;;;;5115616;27;20493;-77
2023/10/30 11:41:42;;;;;;;10.45;2.40;;;14.70;99.90;;;;;;5072464;28;20401;-78
2023/10/30 11:44:13;;;;;;;11.15;2.70;;;14.90;99.90;;;;;;5088796;27;20389;-77
2023/10/30 11:46:40;;;;;;;12.63;2.70;;;14.90;99.90;;;;;;5119789;27;21063;-78
2023/10/30 11:49:08;;;;;;;11.48;2.78;;;15.00;99.90;;;;;;5102777;27;20413;-77
2023/10/30 11:51:44;;;;;;;11.63;2.30;;;14.70;99.90;;;;;;5088780;27;20428;-77
2023/10/30 11:54:10;;;;;;;6.95;2.08;;;15.00;99.90;;;;;;5112830;27;20400;-78
2023/10/30 11:56:36;;;;;;;12.75;3.00;;;15.20;99.90;;;;;;5108954;28;20399;-77
2023/10/30 11:59:03;;;;;;;12.32;2.58;;;15.30;99.90;;;;;;5124119;27;20450;-84
2023/10/30 12:01:32;;;;;;;11.30;2.30;;;15.30;99.90;;;;;;5097556;28;20391;-86
2023/10/30 12:03:59;;;;;;;9.77;2.38;;;15.20;99.90;;;;;;5103489;28;20856;-86
2023/10/30 12:06:28;;;;;;;11.82;2.90;;;;;;;;;;5099322;28;20400;-85
2023/10/30 12:08:54;;;;;;;10.90;3.37;;;14.90;99.90;;;;;;5128598;27;20483;-88
2023/10/30 12:11:19;;;;;;;11.63;2.50;;;15.00;99.90;;;;;;5113590;28;20495;-86
2023/10/30 12:13:47;;;;;;;9.07;2.50;;;14.80;99.90;;;;;;5121277;27;20404;-86
2023/10/30 12:16:13;;;;;;;13.50;2.63;;;14.50;99.90;;;;;;5099435;28;20417;-85
2023/10/30 12:18:39;;;;;;;10.85;2.40;;;14.70;99.90;;;;;;5113288;28;20451;-85
2023/10/30 12:21:05;;;;;;;8.60;2.58;;;;;;;;;;5102289;28;21123;-86
2023/10/30 12:23:31;;;;;;;9.80;2.80;;;14.60;99.90;;;;;;5095946;28;20396;-85
2023/10/30 12:26:05;;;;;;;11.67;2.60;;;;;;;;;;5098579;28;20418;-85
2023/10/30 12:28:35;;;;;;;7.60;2.40;;;15.10;99.90;;;;;;5116153;28;20415;-86
2023/10/30 12:31:26;;;;;;;10.27;2.80;;;14.80;99.90;;;;;;5080584;28;20924;-86
2023/10/30 12:34:14;;;;;;;10.88;2.55;;;;;;;;;;5115103;28;20467;-84
2023/10/30 12:36:40;;;;;;;10.77;2.55;;;;;;;;;;5113829;28;20414;-84
2023/10/30 12:39:17;;;;;;;9.30;2.15;;;14.80;99.90;;;;;;5109862;28;20499;-85
2023/10/30 12:41:44;;;;;;;13.25;2.42;;;14.90;99.90;;;;;;5086845;28;20388;-83
2023/10/30 12:44:10;;;;;;;11.70;2.65;;;14.60;99.90;;;;;;5094375;27;20411;-84
2023/10/30 12:46:36;;;;;;;9.80;2.73;;;;;;;;;;5107025;27;20468;-84
2023/10/30 12:49:03;;;;;;;8.55;2.40;;;;;;;;;;5101601;27;20394;-83
2023/10/30 12:51:31;;;;;;;11.38;2.72;;;14.40;99.90;;;;;;5094754;28;20424;-83
2023/10/30 12:53:56;;;;;;;9.73;2.50;;;14.20;99.90;;;;;;5108864;27;20469;-87
2023/10/30 12:56:22;;;;;;;11.15;2.72;;;14.30;99.90;;;;;;5101186;27;20498;-86
2023/10/30 12:58:48;;;;;;;15.57;3.25;;;14.50;99.90;;;;;;5100120;27;20932;-85
2023/10/30 13:01:14;;;;;;;11.18;2.70;;;14.40;99.90;;;;;;5084459;28;20404;-86
2023/10/30 13:03:39;;;;;;;10.63;2.57;;;14.20;99.90;;;;;;5129059;27;20474;-85
2023/10/30 13:06:05;;;;;;;12.60;2.73;;;14.40;99.90;;;;;;5119087;27;20795;-84
2023/10/30 13:08:31;;;;;;;11.93;2.75;;;;;;;;;;5102598;27;20398;-83
2023/10/30 13:10:57;;;;;;;9.40;2.50;;;14.50;99.90;;;;;;5085313;27;20450;-84
2023/10/30 13:13:23;;;;;;;13.57;2.83;;;;;;;;;;5102314;27;20505;-85
2023/10/30 13:15:49;;;;;;;9.05;2.75;;;14.40;99.90;;;;;;5118731;27;20863;-85
2023/10/30 13:18:16;;;;;;;14.03;2.93;;;;;;;;;;5102362;28;20439;-85
2023/10/30 13:20:42;;;;;;;11.07;2.70;;;;;;;;;;5076872;27;20436;-78
2023/10/30 13:23:08;;;;;;;16.95;2.95;;;14.40;99.90;;;;;;5103504;27;20423;-78
2023/10/30 13:25:33;;;;;;;13.27;2.57;;;14.50;99.90;;;;;;5083648;27;20950;-84
2023/10/30 13:27:59;;;;;;;12.17;3.00;;;14.30;99.90;;;;;;5116408;27;20442;-84
2023/10/30 13:30:25;;;;;;;10.20;2.80;;;;;;;;;;5097146;28;20436;-84
2023/10/30 13:32:56;;;;;;;8.13;2.33;;;14.20;99.90;;;;;;5122345;27;20736;-86
2023/10/30 13:35:25;;;;;;;10.57;2.90;;;13.90;99.90;;;;;;5109002;27;20405;-84
2023/10/30 13:37:50;;;;;;;16.23;2.70;;;14.00;99.90;;;;;;5107567;27;20394;-78
2023/10/30 13:40:17;;;;;;;11.80;2.83;;;;;;;;;;5081162;27;20408;-78
2023/10/30 13:42:42;;;;;;;12.15;2.63;;;14.00;99.90;;;;;;5107574;28;20404;-77
2023/10/30 13:45:09;;;;;;;13.77;2.60;;;;;;;;;;5120954;27;20406;-83
2023/10/30 13:47:35;;;;;;;12.53;2.67;;;;;;;;;;5114509;27;20399;-82
2023/10/30 13:50:01;;;;;;;10.20;2.60;;;;;;;;;;5117384;27;20410;-79
2023/10/30 13:52:27;;;;;;;13.65;2.88;;;14.30;99.90;;;;;;5117185;27;20902;-83
2023/10/30 13:54:52;;;;;;;10.23;2.78;;;14.40;99.90;;;;;;5083971;27;20476;-84
2023/10/30 13:57:19;;;;;;;12.20;2.90;;;;;;;;;;5075413;28;20423;-83